createdAt,value
2023-05-14T00:00:02.108Z,234.64
2023-05-14T00:01:02.128Z,235.28
2023-05-14T00:02:02.182Z,235.31
2023-05-14T00:03:02.254Z,233.69
2023-05-14T00:04:02.297Z,232.42
2023-05-14T00:05:02.245Z,230.41
2023-05-14T00:06:02.259Z,227.91
2023-05-14T00:07:02.262Z,225.34
2023-05-14T00:08:02.323Z,224.68
2023-05-14T00:09:02.328Z,222.87
2023-05-14T00:10:02.319Z,221.73
2023-05-14T00:11:02.310Z,219.43
2023-05-14T00:12:02.367Z,217.09
2023-05-14T00:13:02.435Z,216.50
2023-05-14T00:14:02.474Z,216.62
2023-05-14T00:15:02.523Z,216.90
2023-05-14T00:16:02.564Z,217.43
2023-05-14T00:17:02.538Z,217.87
2023-05-14T00:18:02.584Z,218.92
2023-05-14T00:19:02.659Z,219.95
2023-05-14T00:20:02.654Z,222.09
2023-05-14T00:21:02.672Z,223.14
2023-05-14T00:22:02.718Z,220.58
2023-05-14T00:23:02.738Z,217.91
2023-05-14T00:24:02.726Z,218.92
2023-05-14T00:25:02.781Z,221.74
2023-05-14T00:26:02.805Z,226.94
2023-05-14T00:27:02.866Z,232.10
2023-05-14T00:28:02.897Z,235.56
2023-05-14T00:29:02.943Z,235.46
2023-05-14T00:30:03.013Z,233.00
2023-05-14T00:31:03.041Z,230.97
2023-05-14T00:32:03.045Z,226.59
2023-05-14T00:33:03.129Z,226.29
2023-05-14T00:34:03.186Z,224.23
2023-05-14T00:35:03.256Z,224.27
2023-05-14T00:36:03.302Z,226.13
2023-05-14T00:37:03.365Z,227.59
2023-05-14T00:38:03.379Z,226.25
2023-05-14T00:39:03.449Z,225.42
2023-05-14T00:40:03.485Z,227.78
2023-05-14T00:41:03.485Z,229.36
2023-05-14T00:42:03.508Z,233.83
2023-05-14T00:43:03.527Z,237.89
2023-05-14T00:44:03.543Z,240.40
2023-05-14T00:45:03.569Z,242.48
2023-05-14T00:46:03.604Z,243.61
2023-05-14T00:47:03.679Z,242.57
2023-05-14T00:48:03.744Z,241.29
2023-05-14T00:49:03.652Z,240.87
2023-05-14T00:50:03.739Z,240.49
2023-05-14T00:51:03.727Z,238.61
2023-05-14T00:52:03.734Z,236.46
2023-05-14T00:53:03.784Z,233.47
2023-05-14T00:54:03.824Z,231.92
2023-05-14T00:55:03.854Z,230.98
2023-05-14T00:56:03.868Z,230.39
2023-05-14T00:57:03.913Z,230.15
2023-05-14T00:58:03.934Z,229.72
2023-05-14T00:59:03.976Z,228.59
2023-05-14T01:00:04.006Z,228.06
2023-05-14T01:01:04.118Z,226.69
2023-05-14T01:02:04.049Z,225.32
2023-05-14T01:03:04.182Z,225.35
2023-05-14T01:04:04.151Z,225.04
2023-05-14T01:05:04.153Z,224.58
2023-05-14T01:06:04.169Z,224.81
2023-05-14T01:07:04.219Z,224.86
2023-05-14T01:08:04.208Z,225.82
2023-05-14T01:09:04.278Z,226.76
2023-05-14T01:10:04.300Z,228.97
2023-05-14T01:11:04.298Z,230.65
2023-05-14T01:12:04.279Z,229.98
2023-05-14T01:13:04.303Z,230.46
2023-05-14T01:14:04.389Z,230.52
2023-05-14T01:15:04.417Z,231.19
2023-05-14T01:16:04.467Z,232.09
2023-05-14T01:17:04.520Z,232.59
2023-05-14T01:18:04.564Z,232.32
2023-05-14T01:19:04.564Z,232.85
2023-05-14T01:20:04.575Z,233.32
2023-05-14T01:21:04.580Z,233.47
2023-05-14T01:22:04.602Z,233.53
2023-05-14T01:23:04.624Z,233.76
2023-05-14T01:24:04.638Z,233.48
2023-05-14T01:25:04.626Z,233.75
2023-05-14T01:26:04.661Z,233.23
2023-05-14T01:27:04.665Z,233.93
2023-05-14T01:28:04.670Z,234.06
2023-05-14T01:29:04.796Z,232.98
2023-05-14T01:30:04.832Z,232.92
2023-05-14T01:31:04.866Z,233.91
2023-05-14T01:32:05.056Z,234.13
2023-05-14T01:33:04.979Z,233.49
2023-05-14T01:34:04.958Z,233.02
2023-05-14T01:35:05.018Z,233.29
2023-05-14T01:36:05.006Z,232.75
2023-05-14T01:37:05.029Z,230.26
2023-05-14T01:38:05.058Z,227.22
2023-05-14T01:39:05.087Z,226.31
2023-05-14T01:40:05.099Z,225.83
2023-05-14T01:41:05.146Z,224.99
2023-05-14T01:42:05.139Z,224.35
2023-05-14T01:43:05.260Z,223.90
2023-05-14T01:44:05.218Z,223.29
2023-05-14T01:45:05.200Z,223.00
2023-05-14T01:46:05.275Z,223.06
2023-05-14T01:47:05.221Z,223.05
2023-05-14T01:48:05.311Z,223.20
2023-05-14T01:49:05.248Z,224.10
2023-05-14T01:50:05.292Z,225.05
2023-05-14T01:51:05.298Z,224.88
2023-05-14T01:52:05.337Z,224.03
2023-05-14T01:53:05.356Z,223.45
2023-05-14T01:54:05.356Z,222.71
2023-05-14T01:55:05.384Z,222.56
2023-05-14T01:56:05.399Z,223.83
2023-05-14T01:57:05.463Z,225.30
2023-05-14T01:58:05.502Z,225.51
2023-05-14T01:59:05.554Z,226.01
2023-05-14T02:00:05.587Z,227.36
2023-05-14T02:01:05.626Z,227.60
2023-05-14T02:02:05.577Z,227.60
2023-05-14T02:03:05.704Z,227.03
2023-05-14T02:04:05.689Z,225.70
2023-05-14T02:05:07.040Z,225.28
2023-05-14T02:06:05.710Z,225.00
2023-05-14T02:07:05.748Z,224.18
2023-05-14T02:08:05.780Z,223.46
2023-05-14T02:09:05.843Z,224.25
2023-05-14T02:10:06.416Z,225.25
2023-05-14T02:11:05.895Z,226.01
2023-05-14T02:12:05.888Z,225.31
2023-05-14T02:13:05.913Z,223.64
2023-05-14T02:14:05.938Z,222.43
2023-05-14T02:15:05.990Z,222.94
2023-05-14T02:16:06.057Z,225.61
2023-05-14T02:17:06.042Z,228.49
2023-05-14T02:18:06.090Z,228.20
2023-05-14T02:19:06.134Z,226.91
2023-05-14T02:20:06.096Z,226.97
2023-05-14T02:21:06.118Z,224.89
2023-05-14T02:22:06.077Z,223.95
2023-05-14T02:23:06.146Z,224.64
2023-05-14T02:24:06.196Z,224.55
2023-05-14T02:25:06.232Z,222.51
2023-05-14T02:26:06.356Z,221.64
2023-05-14T02:27:06.330Z,220.77
2023-05-14T02:28:06.305Z,220.05
2023-05-14T02:29:06.320Z,220.58
2023-05-14T02:30:06.321Z,222.64
2023-05-14T02:31:06.394Z,223.52
2023-05-14T02:32:06.416Z,224.04
2023-05-14T02:33:06.489Z,224.76
2023-05-14T02:34:06.429Z,224.22
2023-05-14T02:35:06.421Z,224.69
2023-05-14T02:36:06.433Z,224.67
2023-05-14T02:37:06.462Z,224.41
2023-05-14T02:38:06.481Z,225.02
2023-05-14T02:39:06.544Z,224.87
2023-05-14T02:40:06.569Z,224.66
2023-05-14T02:41:06.558Z,225.78
2023-05-14T02:42:06.566Z,227.85
2023-05-14T02:43:06.616Z,228.11
2023-05-14T02:44:06.614Z,229.10
2023-05-14T02:45:06.635Z,230.18
2023-05-14T02:46:06.632Z,230.96
2023-05-14T02:47:06.705Z,230.88
2023-05-14T02:48:06.763Z,230.96
2023-05-14T02:49:06.706Z,231.88
2023-05-14T02:50:06.736Z,233.23
2023-05-14T02:51:06.774Z,232.48
2023-05-14T02:52:06.784Z,232.99
2023-05-14T02:53:06.776Z,232.34
2023-05-14T02:54:06.782Z,231.31
2023-05-14T02:55:06.840Z,231.08
2023-05-14T02:56:06.910Z,231.04
2023-05-14T02:57:06.896Z,230.43
2023-05-14T02:58:06.894Z,230.30
2023-05-14T02:59:06.918Z,229.85
2023-05-14T03:00:07.006Z,229.70
2023-05-14T03:01:07.129Z,229.77
2023-05-14T03:02:07.050Z,229.90
2023-05-14T03:03:07.090Z,230.12
2023-05-14T03:04:07.066Z,230.14
2023-05-14T03:05:07.079Z,229.75
2023-05-14T03:06:07.071Z,230.18
2023-05-14T03:07:07.090Z,231.26
2023-05-14T03:08:07.132Z,233.65
2023-05-14T03:09:07.161Z,236.69
2023-05-14T03:10:07.221Z,238.28
2023-05-14T03:11:07.268Z,239.44
2023-05-14T03:12:07.274Z,240.56
2023-05-14T03:13:07.332Z,240.87
2023-05-14T03:14:07.381Z,240.40
2023-05-14T03:15:07.487Z,239.73
2023-05-14T03:16:07.452Z,237.04
2023-05-14T03:17:07.576Z,234.38
2023-05-14T03:18:07.524Z,231.75
2023-05-14T03:19:07.599Z,227.17
2023-05-14T03:20:07.537Z,224.49
2023-05-14T03:21:07.595Z,221.62
2023-05-14T03:22:07.613Z,219.98
2023-05-14T03:23:07.638Z,219.81
2023-05-14T03:24:07.663Z,219.93
2023-05-14T03:25:07.697Z,221.00
2023-05-14T03:26:07.722Z,222.74
2023-05-14T03:27:07.738Z,223.20
2023-05-14T03:28:07.806Z,223.36
2023-05-14T03:29:07.837Z,221.75
2023-05-14T03:30:07.837Z,221.16
2023-05-14T03:31:07.913Z,221.47
2023-05-14T03:32:07.911Z,221.53
2023-05-14T03:33:07.906Z,221.62
2023-05-14T03:34:07.912Z,220.94
2023-05-14T03:35:07.955Z,221.09
2023-05-14T03:36:07.977Z,221.49
2023-05-14T03:37:07.985Z,222.79
2023-05-14T03:38:07.971Z,223.19
2023-05-14T03:39:07.985Z,224.18
2023-05-14T03:40:08.049Z,224.18
2023-05-14T03:41:08.092Z,224.18
2023-05-14T03:42:08.117Z,225.20
2023-05-14T03:43:08.138Z,226.51
2023-05-14T03:44:08.118Z,226.20
2023-05-14T03:45:08.194Z,225.37
2023-05-14T03:46:08.207Z,225.12
2023-05-14T03:47:08.267Z,225.81
2023-05-14T03:48:08.386Z,227.03
2023-05-14T03:49:08.338Z,227.72
2023-05-14T03:50:08.328Z,227.82
2023-05-14T03:51:08.355Z,226.45
2023-05-14T03:52:08.347Z,225.94
2023-05-14T03:53:08.353Z,224.35
2023-05-14T03:54:08.382Z,223.32
2023-05-14T03:55:08.385Z,223.16
2023-05-14T03:56:08.407Z,222.98
2023-05-14T03:57:08.420Z,222.06
2023-05-14T03:58:08.436Z,221.19
2023-05-14T03:59:08.408Z,220.91
2023-05-14T04:00:08.472Z,221.00
2023-05-14T04:01:08.447Z,223.11
2023-05-14T04:02:08.453Z,223.74
2023-05-14T04:03:08.540Z,224.40
2023-05-14T04:04:08.588Z,225.32
2023-05-14T04:05:08.513Z,224.27
2023-05-14T04:06:08.546Z,223.38
2023-05-14T04:07:08.547Z,223.69
2023-05-14T04:08:08.557Z,223.89
2023-05-14T04:09:08.597Z,225.83
2023-05-14T04:10:08.616Z,226.68
2023-05-14T04:11:08.632Z,227.63
2023-05-14T04:12:08.675Z,229.13
2023-05-14T04:13:08.704Z,230.26
2023-05-14T04:14:08.730Z,231.69
2023-05-14T04:15:08.758Z,231.85
2023-05-14T04:16:08.782Z,231.00
2023-05-14T04:17:08.783Z,229.96
2023-05-14T04:18:08.850Z,228.83
2023-05-14T04:19:08.847Z,227.41
2023-05-14T04:20:08.846Z,225.92
2023-05-14T04:21:08.908Z,224.09
2023-05-14T04:22:08.904Z,222.09
2023-05-14T04:23:08.919Z,219.88
2023-05-14T04:24:08.958Z,217.12
2023-05-14T04:25:08.970Z,213.84
2023-05-14T04:26:09.006Z,212.96
2023-05-14T04:27:09.038Z,212.19
2023-05-14T04:28:09.001Z,212.10
2023-05-14T04:29:09.029Z,214.06
2023-05-14T04:30:09.055Z,214.85
2023-05-14T04:31:09.084Z,215.71
2023-05-14T04:32:09.107Z,216.36
2023-05-14T04:33:09.123Z,216.34
2023-05-14T04:34:09.089Z,215.72
2023-05-14T04:35:09.125Z,216.31
2023-05-14T04:36:09.426Z,217.02
2023-05-14T04:37:09.120Z,215.95
2023-05-14T04:38:09.136Z,215.85
2023-05-14T04:39:09.154Z,216.22
2023-05-14T04:40:09.158Z,216.06
2023-05-14T04:41:09.164Z,215.26
2023-05-14T04:42:09.148Z,215.72
2023-05-14T04:43:09.200Z,214.67
2023-05-14T04:44:09.315Z,215.37
2023-05-14T04:45:09.371Z,215.31
2023-05-14T04:46:09.500Z,214.84
2023-05-14T04:47:09.401Z,214.01
2023-05-14T04:48:09.537Z,211.45
2023-05-14T04:49:09.456Z,209.66
2023-05-14T04:50:09.481Z,208.56
2023-05-14T04:51:09.471Z,209.32
2023-05-14T04:52:09.527Z,207.83
2023-05-14T04:53:09.527Z,205.22
2023-05-14T04:54:09.591Z,203.70
2023-05-14T04:55:09.582Z,202.97
2023-05-14T04:56:09.610Z,203.31
2023-05-14T04:57:09.625Z,203.08
2023-05-14T04:58:09.653Z,202.50
2023-05-14T04:59:09.667Z,202.64
2023-05-14T05:00:09.709Z,202.85
2023-05-14T05:01:09.755Z,204.07
2023-05-14T05:02:09.767Z,204.52
2023-05-14T05:03:09.892Z,206.27
2023-05-14T05:04:09.894Z,207.16
2023-05-14T05:05:09.898Z,208.18
2023-05-14T05:06:09.949Z,206.50
2023-05-14T05:07:09.999Z,207.00
2023-05-14T05:08:10.045Z,206.95
2023-05-14T05:09:10.074Z,206.85
2023-05-14T05:10:10.090Z,207.26
2023-05-14T05:11:10.131Z,208.35
2023-05-14T05:12:10.161Z,208.07
2023-05-14T05:13:10.164Z,204.86
2023-05-14T05:14:10.202Z,201.94
2023-05-14T05:15:10.249Z,203.10
2023-05-14T05:16:10.326Z,202.94
2023-05-14T05:17:10.309Z,203.48
2023-05-14T05:18:10.355Z,203.05
2023-05-14T05:19:10.440Z,202.86
2023-05-14T05:20:10.391Z,202.75
2023-05-14T05:21:10.387Z,204.00
2023-05-14T05:22:10.512Z,205.02
2023-05-14T05:23:10.464Z,207.04
2023-05-14T05:24:10.492Z,206.18
2023-05-14T05:25:10.568Z,208.26
2023-05-14T05:26:10.606Z,211.34
2023-05-14T05:27:10.664Z,216.78
2023-05-14T05:28:10.748Z,217.21
2023-05-14T05:29:10.785Z,215.00
2023-05-14T05:30:10.859Z,212.64
2023-05-14T05:31:10.944Z,211.13
2023-05-14T05:32:10.890Z,210.57
2023-05-14T05:33:10.957Z,209.21
2023-05-14T05:34:10.945Z,207.93
2023-05-14T05:35:10.971Z,208.06
2023-05-14T05:36:11.039Z,207.59
2023-05-14T05:37:11.089Z,204.71
2023-05-14T05:38:11.132Z,202.51
2023-05-14T05:39:11.130Z,202.46
2023-05-14T05:40:11.251Z,204.13
2023-05-14T05:41:11.272Z,204.35
2023-05-14T05:42:11.279Z,205.04
2023-05-14T05:43:11.271Z,204.78
2023-05-14T05:44:11.293Z,204.84
2023-05-14T05:45:11.330Z,205.25
2023-05-14T05:46:11.469Z,206.16
2023-05-14T05:47:11.375Z,206.93
2023-05-14T05:48:11.378Z,205.35
2023-05-14T05:49:11.377Z,203.56
2023-05-14T05:50:11.472Z,201.73
2023-05-14T05:51:11.452Z,203.02
2023-05-14T05:52:11.503Z,202.48
2023-05-14T05:53:11.535Z,201.25
2023-05-14T05:54:11.565Z,199.73
2023-05-14T05:55:11.628Z,199.64
2023-05-14T05:56:11.628Z,202.21
2023-05-14T05:57:11.664Z,201.98
2023-05-14T05:58:11.686Z,201.95
2023-05-14T05:59:11.725Z,201.72
2023-05-14T06:00:11.798Z,200.68
2023-05-14T06:01:11.887Z,199.88
2023-05-14T06:02:11.925Z,198.30
2023-05-14T06:03:11.963Z,197.12
2023-05-14T06:04:11.934Z,195.85
2023-05-14T06:05:12.031Z,196.44
2023-05-14T06:06:12.001Z,197.27
2023-05-14T06:07:12.009Z,198.01
2023-05-14T06:08:12.037Z,199.56
2023-05-14T06:09:12.065Z,199.72
2023-05-14T06:10:13.005Z,201.64
2023-05-14T06:11:12.484Z,204.46
2023-05-14T06:12:12.158Z,205.72
2023-05-14T06:13:12.221Z,206.42
2023-05-14T06:14:12.267Z,206.88
2023-05-14T06:15:12.267Z,206.43
2023-05-14T06:16:12.313Z,205.28
2023-05-14T06:17:12.287Z,204.09
2023-05-14T06:18:12.296Z,203.62
2023-05-14T06:19:12.429Z,204.05
2023-05-14T06:20:12.367Z,202.67
2023-05-14T06:21:12.389Z,200.49
2023-05-14T06:22:12.410Z,201.96
2023-05-14T06:23:12.502Z,203.63
2023-05-14T06:24:12.447Z,204.73
2023-05-14T06:25:12.496Z,204.21
2023-05-14T06:26:12.517Z,202.35
2023-05-14T06:27:12.531Z,193.94
2023-05-14T06:28:12.572Z,190.23
2023-05-14T06:29:12.617Z,186.26
2023-05-14T06:30:12.645Z,183.18
2023-05-14T06:31:12.626Z,181.93
2023-05-14T06:32:12.799Z,183.73
2023-05-14T06:33:12.692Z,187.05
2023-05-14T06:34:12.761Z,190.04
2023-05-14T06:35:12.787Z,186.71
2023-05-14T06:36:12.813Z,186.97
2023-05-14T06:37:12.837Z,186.54
2023-05-14T06:38:12.867Z,185.95
2023-05-14T06:39:12.886Z,181.34
2023-05-14T06:40:12.959Z,178.06
2023-05-14T06:41:12.997Z,178.28
2023-05-14T06:42:12.982Z,183.53
2023-05-14T06:43:13.053Z,185.43
2023-05-14T06:44:13.061Z,183.37
2023-05-14T06:45:13.088Z,180.98
2023-05-14T06:46:13.127Z,176.87
2023-05-14T06:47:13.166Z,174.07
2023-05-14T06:48:13.266Z,172.92
2023-05-14T06:49:13.365Z,171.14
2023-05-14T06:50:13.284Z,173.81
2023-05-14T06:51:13.379Z,169.99
2023-05-14T06:52:13.331Z,162.93
2023-05-14T06:53:13.384Z,160.86
2023-05-14T06:54:13.414Z,157.96
2023-05-14T06:55:13.410Z,159.18
2023-05-14T06:56:13.445Z,163.90
2023-05-14T06:57:13.449Z,168.50
2023-05-14T06:58:13.484Z,169.71
2023-05-14T06:59:13.513Z,170.10
2023-05-14T07:00:13.518Z,169.40
2023-05-14T07:01:13.593Z,168.02
2023-05-14T07:02:13.549Z,169.43
2023-05-14T07:03:13.565Z,171.42
2023-05-14T07:04:13.635Z,172.70
2023-05-14T07:05:13.672Z,172.71
2023-05-14T07:06:13.773Z,171.81
2023-05-14T07:07:13.732Z,160.89
2023-05-14T07:08:13.747Z,157.69
2023-05-14T07:09:13.781Z,156.19
2023-05-14T07:10:13.857Z,157.92
2023-05-14T07:11:13.866Z,162.91
2023-05-14T07:12:13.914Z,163.38
2023-05-14T07:13:13.967Z,163.78
2023-05-14T07:14:13.985Z,162.43
2023-05-14T07:15:14.051Z,163.29
2023-05-14T07:16:14.089Z,159.84
2023-05-14T07:17:14.186Z,152.92
2023-05-14T07:18:14.182Z,153.87
2023-05-14T07:19:14.300Z,153.12
2023-05-14T07:20:14.212Z,154.75
2023-05-14T07:21:14.255Z,160.92
2023-05-14T07:22:14.260Z,167.49
2023-05-14T07:23:14.299Z,166.76
2023-05-14T07:24:14.265Z,166.98
2023-05-14T07:25:14.296Z,166.01
2023-05-14T07:26:14.350Z,165.15
2023-05-14T07:27:14.413Z,165.48
2023-05-14T07:28:14.989Z,166.87
2023-05-14T07:29:14.432Z,165.35
2023-05-14T07:30:14.441Z,163.75
2023-05-14T07:31:14.467Z,163.36
2023-05-14T07:32:15.669Z,163.06
2023-05-14T07:33:14.509Z,160.58
2023-05-14T07:34:14.515Z,154.84
2023-05-14T07:35:14.520Z,153.08
2023-05-14T07:36:14.548Z,153.38
2023-05-14T07:37:14.529Z,153.61
2023-05-14T07:38:14.561Z,155.75
2023-05-14T07:39:14.599Z,156.24
2023-05-14T07:40:14.620Z,157.86
2023-05-14T07:41:14.669Z,151.67
2023-05-14T07:42:24.572Z,141.30
2023-05-14T07:43:15.710Z,125.73
2023-05-14T07:44:14.692Z,120.10
2023-05-14T07:45:14.677Z,122.53
2023-05-14T07:46:14.668Z,126.09
2023-05-14T07:47:14.690Z,132.95
2023-05-14T07:48:14.803Z,134.50
2023-05-14T07:49:14.656Z,139.65
2023-05-14T07:50:14.645Z,144.23
2023-05-14T07:51:14.646Z,143.00
2023-05-14T07:52:14.626Z,141.16
2023-05-14T07:53:14.630Z,133.39
2023-05-14T07:54:14.613Z,123.34
2023-05-14T07:55:14.603Z,112.88
2023-05-14T07:56:14.649Z,105.00
2023-05-14T07:57:14.706Z,99.40
2023-05-14T07:58:14.711Z,96.34
2023-05-14T07:59:14.766Z,101.03
2023-05-14T08:00:14.827Z,104.03
2023-05-14T08:01:14.874Z,105.71
2023-05-14T08:02:14.949Z,101.85
2023-05-14T08:03:15.139Z,98.65
2023-05-14T08:04:15.027Z,106.73
2023-05-14T08:05:15.061Z,108.90
2023-05-14T08:06:15.108Z,109.78
2023-05-14T08:07:15.187Z,112.87
2023-05-14T08:08:15.186Z,119.97
2023-05-14T08:09:15.255Z,120.69
2023-05-14T08:10:15.329Z,121.13
2023-05-14T08:11:15.388Z,112.54
2023-05-14T08:12:15.382Z,106.90
2023-05-14T08:13:15.473Z,104.13
2023-05-14T08:14:15.510Z,95.07
2023-05-14T08:15:15.595Z,82.51
2023-05-14T08:16:15.647Z,70.65
2023-05-14T08:17:15.716Z,63.42
2023-05-14T08:18:15.711Z,57.59
2023-05-14T08:19:15.804Z,59.74
2023-05-14T08:20:15.761Z,64.81
2023-05-14T08:21:15.747Z,75.83
2023-05-14T08:22:15.755Z,88.13
2023-05-14T08:23:15.785Z,92.51
2023-05-14T08:24:15.823Z,80.87
2023-05-14T08:25:15.872Z,59.36
2023-05-14T08:26:15.863Z,54.12
2023-05-14T08:27:15.906Z,58.98
2023-05-14T08:28:15.922Z,56.45
2023-05-14T08:29:16.700Z,62.16
2023-05-14T08:30:16.009Z,77.53
2023-05-14T08:31:16.067Z,78.62
2023-05-14T08:32:23.258Z,77.36
2023-05-14T08:33:17.062Z,73.45
2023-05-14T08:34:16.020Z,63.26
2023-05-14T08:35:16.025Z,57.70
2023-05-14T08:36:16.015Z,56.75
2023-05-14T08:37:15.987Z,46.02
2023-05-14T08:38:15.989Z,39.28
2023-05-14T08:39:15.988Z,36.95
2023-05-14T08:40:15.960Z,41.62
2023-05-14T08:41:15.970Z,48.41
2023-05-14T08:42:15.969Z,48.62
2023-05-14T08:43:15.953Z,41.91
2023-05-14T08:44:15.960Z,27.36
2023-05-14T08:45:15.967Z,7.49
2023-05-14T08:46:15.996Z,15.81
2023-05-14T08:47:16.053Z,25.83
2023-05-14T08:48:16.160Z,25.10
2023-05-14T08:49:16.137Z,25.10
2023-05-14T08:50:16.164Z,28.52
2023-05-14T08:51:16.185Z,30.70
2023-05-14T08:52:16.233Z,36.13
2023-05-14T08:53:16.241Z,38.16
2023-05-14T08:54:16.284Z,35.47
2023-05-14T08:55:16.349Z,33.54
2023-05-14T08:56:16.404Z,42.22
2023-05-14T08:57:16.471Z,44.41
2023-05-14T08:58:16.483Z,43.78
2023-05-14T08:59:16.532Z,35.98
2023-05-14T09:00:16.573Z,34.99
2023-05-14T09:01:16.648Z,40.64
2023-05-14T09:02:16.639Z,45.62
2023-05-14T09:03:16.735Z,49.28
2023-05-14T09:04:16.736Z,50.68
2023-05-14T09:05:16.717Z,57.62
2023-05-14T09:06:16.751Z,68.11
2023-05-14T09:07:16.820Z,55.17
2023-05-14T09:08:16.851Z,41.44
2023-05-14T09:09:16.876Z,28.13
2023-05-14T09:10:17.516Z,26.39
2023-05-14T09:11:16.967Z,27.77
2023-05-14T09:12:16.996Z,29.08
2023-05-14T09:13:17.020Z,31.75
2023-05-14T09:14:17.078Z,40.56
2023-05-14T09:15:17.120Z,40.93
2023-05-14T09:16:17.211Z,53.82
2023-05-14T09:17:17.185Z,62.94
2023-05-14T09:18:17.186Z,54.60
2023-05-14T09:19:17.265Z,50.54
2023-05-14T09:20:17.255Z,44.77
2023-05-14T09:21:17.292Z,43.73
2023-05-14T09:22:17.326Z,45.49
2023-05-14T09:23:17.347Z,39.62
2023-05-14T09:24:17.321Z,38.28
2023-05-14T09:25:17.320Z,46.95
2023-05-14T09:26:17.360Z,39.61
2023-05-14T09:27:17.421Z,34.21
2023-05-14T09:28:17.532Z,34.97
2023-05-14T09:29:17.519Z,38.00
2023-05-14T09:30:17.544Z,42.19
2023-05-14T09:31:17.609Z,44.54
2023-05-14T09:32:17.612Z,48.47
2023-05-14T09:33:17.639Z,52.91
2023-05-14T09:34:17.705Z,56.85
2023-05-14T09:35:18.057Z,56.05
2023-05-14T09:36:17.859Z,66.57
2023-05-14T09:37:17.855Z,76.83
2023-05-14T09:38:17.878Z,77.44
2023-05-14T09:39:17.902Z,77.09
2023-05-14T09:40:17.933Z,75.34
2023-05-14T09:41:17.959Z,73.71
2023-05-14T09:42:18.002Z,69.27
2023-05-14T09:43:17.997Z,74.20
2023-05-14T09:44:18.035Z,70.06
2023-05-14T09:45:18.085Z,67.23
2023-05-14T09:46:18.067Z,58.07
2023-05-14T09:47:18.113Z,42.37
2023-05-14T09:48:18.142Z,39.49
2023-05-14T09:49:18.133Z,36.99
2023-05-14T09:50:18.190Z,50.26
2023-05-14T09:51:18.196Z,53.38
2023-05-14T09:52:18.249Z,50.70
2023-05-14T09:53:18.241Z,53.19
2023-05-14T09:54:18.299Z,60.83
2023-05-14T09:55:18.373Z,54.51
2023-05-14T09:56:18.370Z,41.98
2023-05-14T09:57:18.389Z,36.75
2023-05-14T09:58:18.405Z,37.06
2023-05-14T09:59:18.458Z,41.16
2023-05-14T10:00:18.477Z,43.88
2023-05-14T10:01:18.541Z,41.20
2023-05-14T10:02:18.557Z,35.08
2023-05-14T10:03:20.089Z,36.27
2023-05-14T10:04:18.680Z,45.88
2023-05-14T10:05:18.698Z,52.16
2023-05-14T10:06:18.749Z,61.27
2023-05-14T10:07:18.780Z,61.91
2023-05-14T10:08:18.773Z,54.97
2023-05-14T10:09:18.864Z,44.49
2023-05-14T10:10:18.885Z,45.69
2023-05-14T10:11:18.925Z,49.65
2023-05-14T10:12:18.948Z,57.45
2023-05-14T10:13:18.948Z,69.01
2023-05-14T10:14:18.981Z,71.57
2023-05-14T10:15:18.985Z,66.05
2023-05-14T10:16:19.071Z,55.47
2023-05-14T10:17:19.179Z,49.94
2023-05-14T10:18:19.256Z,47.09
2023-05-14T10:19:19.200Z,58.81
2023-05-14T10:20:19.237Z,59.83
2023-05-14T10:21:19.232Z,57.86
2023-05-14T10:22:19.241Z,60.75
2023-05-14T10:23:19.284Z,58.95
2023-05-14T10:24:19.339Z,63.19
2023-05-14T10:25:19.410Z,65.60
2023-05-14T10:26:20.148Z,61.44
2023-05-14T10:27:19.468Z,61.93
2023-05-14T10:28:19.464Z,74.27
2023-05-14T10:29:19.538Z,75.68
2023-05-14T10:30:19.534Z,60.26
2023-05-14T10:31:19.590Z,67.19
2023-05-14T10:32:19.642Z,66.78
2023-05-14T10:33:19.639Z,64.44
2023-05-14T10:34:19.702Z,61.63
2023-05-14T10:35:19.709Z,48.88
2023-05-14T10:36:19.729Z,48.59
2023-05-14T10:37:20.553Z,56.11
2023-05-14T10:38:19.770Z,50.16
2023-05-14T10:39:19.827Z,55.03
2023-05-14T10:40:19.861Z,62.49
2023-05-14T10:41:19.863Z,60.60
2023-05-14T10:42:19.920Z,63.77
2023-05-14T10:43:19.936Z,57.06
2023-05-14T10:44:19.952Z,66.28
2023-05-14T10:45:19.968Z,61.50
2023-05-14T10:46:20.067Z,63.30
2023-05-14T10:47:20.058Z,60.65
2023-05-14T10:48:20.108Z,63.99
2023-05-14T10:49:28.246Z,67.18
2023-05-14T10:50:21.092Z,67.49
2023-05-14T10:51:20.079Z,69.23
2023-05-14T10:52:20.069Z,71.85
2023-05-14T10:53:20.095Z,71.93
2023-05-14T10:54:20.068Z,73.65
2023-05-14T10:55:20.041Z,77.17
2023-05-14T10:56:20.059Z,82.51
2023-05-14T10:57:20.114Z,76.33
2023-05-14T10:58:20.043Z,69.39
2023-05-14T10:59:20.063Z,65.85
2023-05-14T11:00:20.034Z,66.89
2023-05-14T11:01:20.052Z,62.72
2023-05-14T11:02:20.125Z,72.01
2023-05-14T11:03:20.031Z,79.09
2023-05-14T11:04:20.025Z,85.70
2023-05-14T11:05:19.997Z,83.58
2023-05-14T11:06:20.006Z,86.37
2023-05-14T11:07:20.027Z,87.99
2023-05-14T11:08:20.043Z,65.24
2023-05-14T11:09:20.070Z,51.39
2023-05-14T11:10:20.153Z,50.58
2023-05-14T11:11:20.096Z,57.38
2023-05-14T11:12:20.128Z,54.00
2023-05-14T11:13:20.148Z,59.90
2023-05-14T11:14:20.205Z,60.65
2023-05-14T11:15:20.236Z,68.20
2023-05-14T11:16:23.740Z,56.85
2023-05-14T11:17:20.297Z,51.29
2023-05-14T11:18:20.240Z,51.39
2023-05-14T11:19:20.261Z,53.76
2023-05-14T11:20:20.220Z,60.01
2023-05-14T11:21:20.301Z,54.61
2023-05-14T11:22:20.219Z,56.48
2023-05-14T11:23:20.208Z,63.60
2023-05-14T11:24:20.197Z,65.81
2023-05-14T11:25:20.224Z,61.28
2023-05-14T11:26:21.812Z,54.48
2023-05-14T11:27:20.185Z,50.24
2023-05-14T11:28:20.178Z,62.27
2023-05-14T11:29:20.167Z,69.71
2023-05-14T11:30:20.219Z,81.94
2023-05-14T11:31:20.200Z,70.68
2023-05-14T11:32:20.147Z,70.47
2023-05-14T11:33:20.188Z,76.97
2023-05-14T11:34:20.167Z,83.56
2023-05-14T11:35:20.142Z,76.42
2023-05-14T11:36:20.142Z,78.67
2023-05-14T11:37:20.135Z,79.87
2023-05-14T11:38:20.137Z,76.25
2023-05-14T11:39:20.117Z,74.71
2023-05-14T11:40:20.082Z,89.68
2023-05-14T11:41:20.091Z,87.85
2023-05-14T11:42:20.094Z,83.30
2023-05-14T11:43:20.089Z,88.90
2023-05-14T11:44:20.058Z,87.80
2023-05-14T11:45:20.058Z,87.07
2023-05-14T11:46:20.200Z,100.36
2023-05-14T11:47:20.068Z,113.32
2023-05-14T11:48:20.157Z,112.14
2023-05-14T11:49:20.195Z,107.97
2023-05-14T11:50:20.217Z,102.32
2023-05-14T11:51:20.303Z,96.01
2023-05-14T11:52:20.296Z,92.81
2023-05-14T11:53:20.302Z,91.62
2023-05-14T11:54:20.298Z,92.25
2023-05-14T11:55:20.311Z,94.61
2023-05-14T11:56:20.322Z,90.62
2023-05-14T11:57:20.386Z,90.91
2023-05-14T11:58:20.406Z,92.89
2023-05-14T11:59:20.444Z,94.50
2023-05-14T12:00:20.544Z,101.08
2023-05-14T12:01:20.467Z,102.96
2023-05-14T12:02:20.501Z,94.97
2023-05-14T12:03:20.713Z,96.30
2023-05-14T12:04:20.564Z,94.69
2023-05-14T12:05:20.590Z,97.50
2023-05-14T12:06:20.581Z,98.40
2023-05-14T12:07:20.590Z,108.92
2023-05-14T12:08:20.600Z,119.74
2023-05-14T12:09:20.616Z,130.40
2023-05-14T12:10:20.666Z,133.69
2023-05-14T12:11:20.769Z,127.58
2023-05-14T12:12:20.752Z,121.50
2023-05-14T12:13:20.789Z,112.26
2023-05-14T12:14:20.839Z,114.43
2023-05-14T12:15:20.839Z,112.97
2023-05-14T12:16:20.885Z,103.61
2023-05-14T12:17:20.988Z,100.69
2023-05-14T12:18:24.564Z,102.24
2023-05-14T12:19:20.982Z,102.32
2023-05-14T12:20:20.956Z,102.25
2023-05-14T12:21:20.889Z,96.96
2023-05-14T12:22:20.917Z,96.44
2023-05-14T12:23:20.891Z,94.00
2023-05-14T12:24:20.893Z,97.40
2023-05-14T12:25:20.883Z,98.21
2023-05-14T12:26:20.870Z,95.76
2023-05-14T12:27:20.860Z,87.73
2023-05-14T12:28:20.864Z,91.39
2023-05-14T12:29:20.900Z,98.15
2023-05-14T12:30:22.142Z,90.99
2023-05-14T12:31:20.858Z,86.63
2023-05-14T12:32:20.823Z,80.61
2023-05-14T12:33:20.826Z,80.29
2023-05-14T12:34:20.817Z,72.81
2023-05-14T12:35:20.814Z,71.04
2023-05-14T12:36:22.426Z,71.17